Allen, Washington
Current Conditions -  °F | °C
As of 7:55 PM on Wednesday 17 Dec 2014 (Local Time) from KBVS Reporting Station
Overcast Overcast  
Wind Chill:   Ceiling: 4200
Heat Index:   Visibility: 10mi
Dew Point:   Wind: 3mph
Humidity: 93%   Direction: 90°E
Pressure: 29.91"   Gusts: NA
Location:  48.5689°N, 122.407°W
Report Text: KBVS 180355Z AUTO 09003KT 10SM BKN042 OVC050 07/06 A2991 RMK A01 P000
Loading
Personal Weather Stations






























Interactive Weather Map New forecast layout! Learn more

10-Day Weather Forecast

Advertisements
Track Severe Weather on mobile